< Typhoon 197518 1975 Season Typhoon 197520 >
Typhoon 197519 (IDA)
General InformationTrack Information on Google Maps || Disaster Info.ResourceGoogle EarthGE AnimationAtom FeedGeoJSON
Detalied Best Track (Time Zone = UTC)
Year Month Day Hour Lat. Long. Pressure (hPa) Wind (kt) Class Image Chart
1975 11 5 06 9.5 150.5 1004 0 2 -- Chart
1975 11 5 12 9.9 149.9 1006 0 2 -- Chart
1975 11 5 18 10.5 149.2 1006 0 2 -- Chart
1975 11 6 00 10.8 148.8 1006 0 2 -- Chart
1975 11 6 06 11.4 148.5 1004 0 2 -- Chart
1975 11 6 12 12.1 148.6 1004 0 2 -- Chart
1975 11 6 18 12.7 149.1 1004 0 2 -- Chart
1975 11 7 00 13.0 149.5 1004 0 2 -- Chart
1975 11 7 06 13.5 149.6 1002 0 2 -- Chart
1975 11 7 12 13.9 149.3 1000 0 9 -- Chart
1975 11 7 18 14.4 149.0 994 0 9 -- Chart
1975 11 8 00 15.0 148.5 992 0 9 -- Chart
1975 11 8 06 15.8 148.0 990 0 9 -- Chart
1975 11 8 12 16.8 147.4 990 0 9 -- Chart
1975 11 8 18 16.8 147.4 990 0 9 -- Chart
1975 11 9 00 18.4 146.1 980 0 9 -- Chart
1975 11 9 06 18.4 146.1 980 0 9 -- Chart
1975 11 9 12 20.1 145.4 975 0 9 -- Chart
1975 11 9 18 20.1 145.4 975 0 9 -- Chart
1975 11 10 00 22.4 145.6 970 0 9 -- Chart
1975 11 10 06 24.2 146.4 960 0 9 -- Chart
1975 11 10 12 26.6 147.2 955 0 9 -- Chart
1975 11 10 18 30.0 149.0 950 0 9 -- Chart
1975 11 11 00 33.7 151.4 950 0 9 -- Chart
1975 11 11 06 35.6 151.7 955 0 9 -- Chart
1975 11 11 12 37.7 152.6 968 0 6 -- Chart
1975 11 11 18 39.7 153.7 976 0 6 -- Chart
1975 11 12 00 41.2 156.0 980 0 6 -- Chart
1975 11 12 06 41.9 158.1 984 0 6 -- Chart
1975 11 12 12 42.3 161.0 988 0 6 -- Chart
1975 11 12 18 42.5 163.5 992 0 6 -- Chart
1975 11 13 00 42.3 166.0 996 0 6 -- Chart
1975 11 13 06 41.8 168.2 1000 0 6 -- Chart
1975 11 13 12 40.9 170.0 1002 0 6 -- Chart
1975 11 13 18 40.6 171.1 1004 0 6 -- Chart
1975 11 14 00 40.3 172.5 1010 0 6 -- Chart
1975 11 14 06 40.0 174.2 1012 0 6 -- Chart
1975 11 14 12 39.4 175.7 1014 0 6 -- Chart
1975 11 14 18 38.6 177.4 1016 0 6 -- Chart
1975 11 15 00 37.8 179.3 1018 0 6 -- Chart
1975 11 15 06 36.9 181.1 1018 0 6 -- Chart
Japan Meteorological Agency Best Track Data | Correction Date : 1989-06-01
< Typhoon 197518 1975 Season Typhoon 197520 >

Help